Time;durP1;ratioP1;P1;durP2;ratioP2;P2;SDS_P1;SDS_P2;PMS_P1;PMS_P2;Temp;Humidity;BMP_temperature;BMP_pressure;BME280_temperature;BME280_humidity;BME280_pressure;Samples;Min_cycle;Max_cycle;Signal;HPM_P1;HPM_P2
2021/07/16 00:01:58;;;;;;;15.88;5.15;;;16.30;99.90;;;;;;4901528;29;20028;-93
2021/07/16 00:04:24;;;;;;;12.75;5.10;;;16.30;99.90;;;;;;4910035;29;20044;-92
2021/07/16 00:06:50;;;;;;;8.43;5.25;;;16.30;99.90;;;;;;4930444;29;20035;-95
2021/07/16 00:09:18;;;;;;;10.40;4.95;;;16.30;99.90;;;;;;4914240;29;20032;-93
2021/07/16 00:11:44;;;;;;;10.82;5.13;;;16.30;99.90;;;;;;4914360;29;20042;-92
2021/07/16 00:14:10;;;;;;;11.30;4.90;;;16.30;99.90;;;;;;4929776;29;20051;-94
2021/07/16 00:16:38;;;;;;;12.13;5.30;;;16.30;99.90;;;;;;4946499;29;20047;-91
2021/07/16 00:19:04;;;;;;;14.35;4.65;;;16.30;99.90;;;;;;4948923;29;20031;-91
2021/07/16 00:21:30;;;;;;;8.30;4.20;;;16.30;99.90;;;;;;4930212;29;20060;-95
2021/07/16 00:23:56;;;;;;;8.13;3.88;;;16.20;99.90;;;;;;4929578;29;20040;-95
2021/07/16 00:26:21;;;;;;;11.93;4.63;;;16.20;99.90;;;;;;4913870;29;20032;-94
2021/07/16 00:28:47;;;;;;;7.38;4.53;;;16.30;99.90;;;;;;4929765;29;20581;-94
2021/07/16 00:31:13;;;;;;;11.68;4.65;;;16.30;99.90;;;;;;4929430;29;20063;-94
2021/07/16 00:33:39;;;;;;;11.02;4.10;;;16.20;99.90;;;;;;4913771;29;20043;-91
2021/07/16 00:36:04;;;;;;;9.18;3.97;;;16.20;99.90;;;;;;4930958;29;20032;-93
2021/07/16 00:38:32;;;;;;;9.02;4.65;;;16.20;99.90;;;;;;4929646;29;20032;-93
2021/07/16 00:40:58;;;;;;;16.65;5.82;;;16.20;99.90;;;;;;4929190;29;20060;-94
2021/07/16 00:43:24;;;;;;;12.13;5.80;;;16.20;99.90;;;;;;4929371;29;20040;-92
2021/07/16 00:46:10;;;;;;;9.88;4.70;;;16.20;99.90;;;;;;4929101;29;20492;-92
2021/07/16 00:48:36;;;;;;;11.27;4.50;;;16.20;99.90;;;;;;4892984;23;20153;-89
2021/07/16 00:51:05;;;;;;;14.55;5.55;;;16.10;99.90;;;;;;4887937;29;20042;-95
2021/07/16 00:53:31;;;;;;;14.17;5.27;;;16.20;99.90;;;;;;4901751;29;20059;-93
2021/07/16 00:55:57;;;;;;;11.18;5.00;;;16.20;99.90;;;;;;4902156;29;20040;-90
2021/07/16 00:58:22;;;;;;;6.30;4.20;;;16.20;99.90;;;;;;4910039;29;20040;-92
2021/07/16 01:00:48;;;;;;;11.70;4.78;;;16.20;99.90;;;;;;4893494;29;20028;-92
2021/07/16 01:03:14;;;;;;;9.70;5.40;;;16.10;99.90;;;;;;4921079;29;20096;-93
2021/07/16 01:05:42;;;;;;;10.82;5.35;;;16.20;99.90;;;;;;4909643;29;20123;-93
2021/07/16 01:08:08;;;;;;;11.80;5.10;;;16.20;99.90;;;;;;4909427;29;20036;-91
2021/07/16 01:10:35;;;;;;;11.43;5.22;;;16.10;99.90;;;;;;4894121;29;20057;-93
2021/07/16 01:13:01;;;;;;;9.80;5.25;;;16.10;99.90;;;;;;4894158;29;20064;-94
2021/07/16 01:15:30;;;;;;;10.25;4.53;;;16.00;99.90;;;;;;4894000;29;20120;-94
2021/07/16 01:17:55;;;;;;;11.48;5.95;;;16.00;99.90;;;;;;4909739;29;20029;-93
2021/07/16 01:20:29;;;;;;;10.75;4.72;;;16.00;99.90;;;;;;4915603;29;20068;-93
2021/07/16 01:22:56;;;;;;;10.23;5.25;;;16.00;99.90;;;;;;4875073;29;20144;-94
2021/07/16 01:25:24;;;;;;;8.68;4.85;;;15.90;99.90;;;;;;4875292;29;20036;-94
2021/07/16 01:27:53;;;;;;;11.35;4.32;;;15.90;99.90;;;;;;4872058;29;20038;-94
2021/07/16 01:30:23;;;;;;;9.35;4.25;;;15.90;99.90;;;;;;4900448;29;20096;-94
2021/07/16 01:32:49;;;;;;;9.18;5.13;;;15.90;99.90;;;;;;4909304;29;20037;-94
2021/07/16 01:35:16;;;;;;;11.82;5.00;;;15.80;99.90;;;;;;4893705;29;20051;-95
2021/07/16 01:37:42;;;;;;;15.05;5.55;;;15.80;99.90;;;;;;4893895;29;20032;-95
2021/07/16 01:40:11;;;;;;;9.07;4.88;;;15.80;99.90;;;;;;4911623;29;20024;-95
2021/07/16 01:42:41;;;;;;;8.95;4.10;;;15.80;99.90;;;;;;4897251;29;20119;-95
2021/07/16 01:45:09;;;;;;;9.55;5.22;;;15.90;99.90;;;;;;4897586;29;20096;-91
2021/07/16 01:47:36;;;;;;;12.02;5.57;;;15.80;99.90;;;;;;4893674;29;20460;-96
2021/07/16 01:50:04;;;;;;;11.25;4.82;;;15.80;99.90;;;;;;4913895;29;20401;-96
2021/07/16 01:52:30;;;;;;;10.82;4.40;;;15.80;99.90;;;;;;4876664;29;20040;-95
2021/07/16 01:54:56;;;;;;;11.63;5.55;;;15.80;99.90;;;;;;4913906;29;20032;-95
2021/07/16 01:57:21;;;;;;;14.40;6.18;;;15.80;99.90;;;;;;4898356;29;20099;-96
2021/07/16 01:59:47;;;;;;;15.50;6.20;;;15.80;99.90;;;;;;4897732;29;20103;-94
2021/07/16 02:02:14;;;;;;;11.52;5.90;;;15.80;99.90;;;;;;4898131;29;20041;-94
2021/07/16 02:04:39;;;;;;;7.63;5.30;;;15.80;99.90;;;;;;4897964;29;20065;-92
2021/07/16 02:07:05;;;;;;;9.82;6.57;;;15.80;99.90;;;;;;4881976;29;20032;-91
2021/07/16 02:09:39;;;;;;;11.30;5.65;;;15.80;99.90;;;;;;4897227;29;20055;-92
2021/07/16 02:12:05;;;;;;;16.98;6.65;;;15.80;99.90;;;;;;4897751;29;20040;-93
2021/07/16 02:14:31;;;;;;;16.05;7.20;;;15.80;99.90;;;;;;4882243;29;20037;-95
2021/07/16 02:17:00;;;;;;;14.20;6.30;;;15.70;99.90;;;;;;4878857;29;20039;-95
2021/07/16 02:19:33;;;;;;;12.98;6.20;;;15.70;99.90;;;;;;4880690;29;20096;-96
2021/07/16 02:21:59;;;;;;;11.25;6.28;;;15.70;99.90;;;;;;4897638;29;20040;-93
2021/07/16 02:24:25;;;;;;;12.50;6.38;;;15.70;99.90;;;;;;4897084;29;20044;-93
2021/07/16 02:26:50;;;;;;;14.48;6.30;;;15.70;99.90;;;;;;4897709;29;20036;-94
2021/07/16 02:29:38;;;;;;;10.25;5.68;;;15.70;99.90;;;;;;4897228;29;20379;-95
2021/07/16 02:32:04;;;;;;;14.52;6.93;;;15.70;99.90;;;;;;4913226;29;20574;-95
2021/07/16 02:34:30;;;;;;;12.32;5.38;;;15.60;99.90;;;;;;4928657;29;20029;-93
2021/07/16 02:36:57;;;;;;;13.75;6.18;;;15.60;99.90;;;;;;4884832;29;20118;-94
2021/07/16 02:39:42;;;;;;;15.80;6.05;;;15.60;99.90;;;;;;4880267;29;20045;-94
2021/07/16 02:42:07;;;;;;;16.10;5.90;;;15.60;99.90;;;;;;4897651;29;20400;-95
2021/07/16 02:44:33;;;;;;;16.30;5.78;;;15.60;99.90;;;;;;4897350;29;20040;-92
2021/07/16 02:46:59;;;;;;;15.23;7.10;;;15.60;99.90;;;;;;4893751;29;20048;-94
2021/07/16 02:49:25;;;;;;;17.83;5.93;;;15.50;99.90;;;;;;4894189;29;20064;-93
2021/07/16 02:51:51;;;;;;;17.38;6.50;;;15.50;99.90;;;;;;4893773;29;20068;-94
2021/07/16 02:54:16;;;;;;;16.33;6.85;;;15.50;99.90;;;;;;4880193;29;20029;-96
2021/07/16 02:56:42;;;;;;;18.30;6.68;;;15.50;99.90;;;;;;4874983;29;20479;-88
2021/07/16 02:59:08;;;;;;;16.05;5.72;;;15.50;99.90;;;;;;4911164;29;20042;-96
2021/07/16 03:01:53;;;;;;;17.67;6.03;;;15.40;99.90;;;;;;4880226;29;20043;-92
2021/07/16 03:04:19;;;;;;;11.88;5.22;;;15.50;99.90;;;;;;4907476;29;20044;-94
2021/07/16 03:06:44;;;;;;;14.80;5.68;;;15.40;99.90;;;;;;4897314;29;20095;-94
2021/07/16 03:09:10;;;;;;;11.55;5.32;;;15.50;99.90;;;;;;4895015;29;20027;-84
2021/07/16 03:11:36;;;;;;;10.68;4.72;;;15.40;99.90;;;;;;4890167;29;20053;-95
2021/07/16 03:14:03;;;;;;;17.75;5.18;;;15.40;99.90;;;;;;4905832;29;20544;-92
2021/07/16 03:16:29;;;;;;;10.50;5.47;;;15.40;99.90;;;;;;4890510;29;20109;-95
2021/07/16 03:19:02;;;;;;;17.27;6.28;;;15.40;99.90;;;;;;4890496;29;20113;-95
2021/07/16 03:21:28;;;;;;;13.80;5.15;;;15.40;99.90;;;;;;4917717;29;20036;-95
2021/07/16 03:23:53;;;;;;;13.52;4.60;;;15.40;99.90;;;;;;4896236;29;20044;-92
2021/07/16 03:26:19;;;;;;;13.85;6.03;;;15.40;99.90;;;;;;4896485;29;20040;-93
2021/07/16 03:28:47;;;;;;;13.32;5.53;;;15.40;99.90;;;;;;4896255;29;20043;-90
2021/07/16 03:31:13;;;;;;;14.90;5.57;;;15.40;99.90;;;;;;4880258;29;20532;-94
2021/07/16 03:33:38;;;;;;;11.32;5.25;;;15.40;99.90;;;;;;4885905;29;20053;-94
2021/07/16 03:36:06;;;;;;;14.25;5.75;;;15.40;99.90;;;;;;4877537;29;20093;-94
2021/07/16 03:38:38;;;;;;;20.95;6.57;;;15.40;99.90;;;;;;4877327;29;20057;-92
2021/07/16 03:41:07;;;;;;;17.00;6.30;;;15.30;99.90;;;;;;4907685;29;20032;-93
2021/07/16 03:43:33;;;;;;;11.77;4.93;;;15.40;99.90;;;;;;4888513;29;20068;-94
2021/07/16 03:49:48;;;;;;;16.48;5.85;;;15.30;99.90;;;;;;4895181;29;20063;-93
2021/07/16 03:52:14;;;;;;;12.10;5.25;;;15.30;99.90;;;;;;4888297;29;20041;-93
2021/07/16 03:54:40;;;;;;;14.55;5.85;;;15.30;99.90;;;;;;4907975;29;20051;-92
2021/07/16 03:57:07;;;;;;;13.00;4.30;;;15.30;99.90;;;;;;4888501;29;20042;-93
2021/07/16 03:59:35;;;;;;;9.88;4.50;;;15.30;99.90;;;;;;4863458;29;20056;-90
2021/07/16 04:02:03;;;;;;;12.75;3.83;;;15.30;99.90;;;;;;4894214;29;20045;-95
2021/07/16 04:04:29;;;;;;;12.32;4.22;;;15.30;99.90;;;;;;4879804;29;20044;-90
2021/07/16 04:06:56;;;;;;;20.05;5.72;;;15.20;99.90;;;;;;4875637;29;20033;-91
2021/07/16 04:09:30;;;;;;;10.95;4.45;;;15.30;99.90;;;;;;4891854;29;20033;-91
2021/07/16 04:12:09;;;;;;;14.77;5.40;;;15.20;99.90;;;;;;4878529;29;20044;-92
2021/07/16 04:14:41;;;;;;;12.60;5.05;;;15.30;99.90;;;;;;4874879;29;20545;-92
2021/07/16 04:17:09;;;;;;;20.52;4.90;;;15.20;99.90;;;;;;4856284;29;20105;-90
2021/07/16 04:19:35;;;;;;;12.88;4.00;;;15.20;99.90;;;;;;4877917;29;20044;-94
2021/07/16 04:22:01;;;;;;;13.90;4.47;;;15.30;99.90;;;;;;4888855;29;20119;-90
2021/07/16 04:24:27;;;;;;;12.10;4.82;;;15.30;99.90;;;;;;4903556;29;20445;-92
2021/07/16 04:26:52;;;;;;;14.88;5.03;;;15.30;99.90;;;;;;4895146;29;20044;-96
2021/07/16 04:29:19;;;;;;;11.27;4.50;;;15.30;99.90;;;;;;4891161;29;20037;-94
2021/07/16 04:31:45;;;;;;;14.90;4.35;;;15.30;99.90;;;;;;4889671;29;20104;-89
2021/07/16 04:34:11;;;;;;;12.57;3.85;;;15.20;99.90;;;;;;4888030;29;20047;-89
2021/07/16 04:36:37;;;;;;;12.80;4.05;;;15.20;99.90;;;;;;4894411;29;20028;-92
2021/07/16 04:39:03;;;;;;;13.02;4.53;;;15.20;99.90;;;;;;4894010;29;20043;-93
2021/07/16 04:41:29;;;;;;;13.95;3.60;;;15.30;99.90;;;;;;4888272;29;20037;-90
2021/07/16 04:43:56;;;;;;;17.17;4.35;;;15.30;99.90;;;;;;4912799;29;20119;-88
2021/07/16 04:46:28;;;;;;;13.13;4.30;;;15.30;99.90;;;;;;4893640;29;20115;-85
2021/07/16 04:48:57;;;;;;;15.85;3.58;;;15.30;99.90;;;;;;4893430;29;20064;-93
2021/07/16 04:51:31;;;;;;;11.38;3.63;;;15.30;99.90;;;;;;4887490;29;20029;-92
2021/07/16 04:53:58;;;;;;;10.45;3.30;;;15.30;99.90;;;;;;4890994;29;20097;-93
2021/07/16 04:56:24;;;;;;;5.95;2.50;;;15.30;99.90;;;;;;4905656;29;20446;-87
2021/07/16 04:58:52;;;;;;;10.85;3.35;;;15.30;99.90;;;;;;4906236;29;20604;-93
2021/07/16 05:01:21;;;;;;;9.82;3.45;;;15.30;99.90;;;;;;4890845;29;20029;-93
2021/07/16 05:03:48;;;;;;;9.43;2.70;;;15.30;99.90;;;;;;4906203;29;20481;-89
2021/07/16 05:06:14;;;;;;;11.85;3.22;;;15.40;99.90;;;;;;4890807;29;20285;-92
2021/07/16 05:08:40;;;;;;;9.75;3.05;;;15.40;99.90;;;;;;4890739;29;20064;-91
2021/07/16 05:11:07;;;;;;;9.80;3.53;;;15.40;99.90;;;;;;4890778;29;20127;-89
2021/07/16 05:13:36;;;;;;;10.27;3.00;;;15.40;99.90;;;;;;4889832;29;20041;-93
2021/07/16 05:16:05;;;;;;;12.88;3.83;;;15.40;99.90;;;;;;4890564;29;20120;-91
2021/07/16 05:18:31;;;;;;;11.57;3.00;;;15.50;99.90;;;;;;4890661;29;20139;-93
2021/07/16 05:20:58;;;;;;;9.02;3.20;;;15.50;99.90;;;;;;4906401;29;20055;-89
2021/07/16 05:23:24;;;;;;;15.20;3.28;;;15.50;99.90;;;;;;4890255;29;20049;-91
2021/07/16 05:25:50;;;;;;;15.00;2.60;;;15.50;99.90;;;;;;4890592;29;20037;-90
2021/07/16 05:28:15;;;;;;;13.13;3.15;;;15.50;99.90;;;;;;4879647;29;20058;-89
2021/07/16 05:30:41;;;;;;;9.75;3.25;;;15.50;99.90;;;;;;4908549;29;20516;-91
2021/07/16 05:33:07;;;;;;;6.88;1.80;;;15.50;99.90;;;;;;4908502;29;20043;-90
2021/07/16 05:35:33;;;;;;;9.07;2.58;;;15.60;99.90;;;;;;4908670;29;20095;-91
2021/07/16 05:37:59;;;;;;;12.07;4.60;;;15.70;99.90;;;;;;4909420;29;20028;-89
2021/07/16 05:40:28;;;;;;;11.82;2.70;;;15.70;99.90;;;;;;4908555;29;20109;-91
2021/07/16 05:42:54;;;;;;;11.07;3.08;;;15.70;99.90;;;;;;4908712;29;20048;-87
2021/07/16 05:45:19;;;;;;;10.60;2.85;;;15.70;99.90;;;;;;4908023;29;20039;-93
2021/07/16 05:47:46;;;;;;;10.07;2.28;;;15.60;99.90;;;;;;4897181;29;20446;-90
2021/07/16 05:50:12;;;;;;;11.35;3.08;;;15.70;99.90;;;;;;4905988;29;20049;-90
2021/07/16 05:52:37;;;;;;;10.70;2.10;;;15.70;99.90;;;;;;4882572;29;20093;-89
2021/07/16 05:55:04;;;;;;;13.18;3.08;;;15.70;99.90;;;;;;4904629;29;20037;-89
2021/07/16 05:57:31;;;;;;;11.10;2.47;;;15.70;99.90;;;;;;4889989;29;20047;-90
2021/07/16 05:59:57;;;;;;;7.85;2.40;;;15.70;99.90;;;;;;4890027;29;20100;-90
2021/07/16 06:02:23;;;;;;;12.82;3.75;;;15.70;99.90;;;;;;4890944;29;20037;-91
2021/07/16 06:04:49;;;;;;;11.63;2.65;;;15.70;99.90;;;;;;4875837;29;20184;-92
2021/07/16 06:07:15;;;;;;;8.55;2.80;;;15.70;99.90;;;;;;4874298;29;20033;-91
2021/07/16 06:09:40;;;;;;;10.20;2.78;;;15.80;99.90;;;;;;4874245;29;20157;-90
2021/07/16 06:12:07;;;;;;;9.90;2.45;;;15.70;99.90;;;;;;4905313;29;20029;-91
2021/07/16 06:14:33;;;;;;;10.77;2.50;;;15.80;99.90;;;;;;4905331;29;20041;-90
2021/07/16 06:16:58;;;;;;;9.77;2.17;;;15.90;99.90;;;;;;4892210;29;20048;-91
2021/07/16 06:19:25;;;;;;;8.68;2.28;;;15.90;99.90;;;;;;4892242;29;20065;-92
2021/07/16 06:21:51;;;;;;;8.77;2.83;;;15.80;99.90;;;;;;4908307;29;20033;-92
2021/07/16 06:24:16;;;;;;;8.90;2.38;;;15.80;99.90;;;;;;4907773;29;20069;-90
2021/07/16 06:26:42;;;;;;;16.23;3.17;;;15.80;99.90;;;;;;4911256;29;20068;-89
2021/07/16 06:29:08;;;;;;;8.25;1.42;;;15.90;99.90;;;;;;4911693;29;20040;-92
2021/07/16 06:31:34;;;;;;;9.63;2.25;;;15.90;99.90;;;;;;4896094;29;20036;-89
2021/07/16 06:34:01;;;;;;;10.00;3.08;;;16.00;99.90;;;;;;4896352;29;20081;-94
2021/07/16 06:36:27;;;;;;;11.48;2.70;;;15.90;99.90;;;;;;4911433;29;20041;-93
2021/07/16 06:38:52;;;;;;;12.55;2.25;;;16.00;99.90;;;;;;4911585;29;20028;-92
2021/07/16 06:41:18;;;;;;;9.25;1.98;;;16.10;99.90;;;;;;4912574;29;20040;-91
2021/07/16 06:43:44;;;;;;;12.25;2.40;;;16.10;99.90;;;;;;4911340;29;20059;-85
2021/07/16 06:46:12;;;;;;;15.52;2.03;;;16.00;99.90;;;;;;4911045;29;20108;-91
2021/07/16 06:48:41;;;;;;;10.35;1.67;;;16.00;99.90;;;;;;4896012;29;20032;-91
2021/07/16 06:51:06;;;;;;;12.23;2.10;;;16.10;99.90;;;;;;4896384;29;20033;-93
2021/07/16 06:53:32;;;;;;;10.73;1.88;;;16.10;99.90;;;;;;4894384;29;20497;-94
2021/07/16 06:55:58;;;;;;;12.10;1.75;;;16.10;99.90;;;;;;4892957;29;20029;-87
2021/07/16 06:58:23;;;;;;;10.48;2.15;;;16.00;99.90;;;;;;4893167;29;20068;-94
2021/07/16 07:00:50;;;;;;;12.68;2.22;;;16.00;99.90;;;;;;4887080;29;20100;-91
2021/07/16 07:03:16;;;;;;;8.43;1.33;;;16.00;99.90;;;;;;4892911;29;20037;-89
2021/07/16 07:05:42;;;;;;;14.68;2.38;;;16.10;99.90;;;;;;4892694;29;20079;-92
2021/07/16 07:08:07;;;;;;;17.00;2.15;;;16.10;99.90;;;;;;4892480;29;20044;-89
2021/07/16 07:10:33;;;;;;;14.30;2.55;;;16.10;99.90;;;;;;4893237;29;20446;-92
2021/07/16 07:13:03;;;;;;;14.20;1.98;;;16.10;99.90;;;;;;4892258;29;20029;-93
2021/07/16 07:15:29;;;;;;;14.30;1.90;;;16.20;99.90;;;;;;4899688;29;20076;-92
2021/07/16 07:17:55;;;;;;;10.95;1.75;;;16.20;99.90;;;;;;4911196;29;20120;-93
2021/07/16 07:20:20;;;;;;;10.02;1.98;;;16.20;99.90;;;;;;4912049;29;20033;-92
2021/07/16 07:22:46;;;;;;;10.60;1.75;;;16.30;99.90;;;;;;4911104;29;20055;-93
2021/07/16 07:25:12;;;;;;;10.90;1.83;;;16.30;99.90;;;;;;4910722;29;20033;-90
2021/07/16 07:27:37;;;;;;;12.90;1.85;;;16.30;99.90;;;;;;4910979;29;20028;-92
2021/07/16 07:30:04;;;;;;;15.27;1.80;;;16.30;99.90;;;;;;4910894;29;20394;-92
2021/07/16 07:32:30;;;;;;;12.35;2.05;;;16.30;99.90;;;;;;4910491;29;20029;-92
2021/07/16 07:34:56;;;;;;;13.68;3.08;;;16.40;99.90;;;;;;4910745;29;20067;-93
2021/07/16 07:37:21;;;;;;;14.82;2.15;;;16.30;99.90;;;;;;4893881;29;20028;-94
2021/07/16 07:39:47;;;;;;;11.52;1.50;;;16.30;99.90;;;;;;4910690;29;20590;-90
2021/07/16 07:42:15;;;;;;;14.55;2.03;;;16.40;99.90;;;;;;4910554;29;20050;-93
2021/07/16 07:44:41;;;;;;;14.73;2.03;;;16.40;99.90;;;;;;4879387;29;20135;-93
2021/07/16 07:47:07;;;;;;;19.10;2.80;;;16.50;99.90;;;;;;4879665;29;20041;-91
2021/07/16 07:49:33;;;;;;;12.27;2.05;;;16.40;99.90;;;;;;4911010;29;20116;-91
2021/07/16 07:51:59;;;;;;;9.85;1.45;;;16.50;99.90;;;;;;4895097;29;20028;-90
2021/07/16 07:54:24;;;;;;;12.55;1.70;;;16.60;99.90;;;;;;4910402;29;20544;-90
2021/07/16 07:56:50;;;;;;;16.58;3.35;;;16.70;99.90;;;;;;4894690;29;20060;-92
2021/07/16 07:59:16;;;;;;;20.30;2.22;;;16.70;99.90;;;;;;4910701;29;20109;-89
2021/07/16 08:01:42;;;;;;;9.35;1.83;;;16.70;99.90;;;;;;4895353;29;20035;-93
2021/07/16 08:04:07;;;;;;;8.90;1.45;;;16.90;99.90;;;;;;4895146;29;20130;-90
2021/07/16 08:06:33;;;;;;;16.98;1.75;;;17.10;99.90;;;;;;4894693;29;20096;-90
2021/07/16 08:08:59;;;;;;;17.13;2.28;;;17.20;99.90;;;;;;4894826;29;20037;-93
2021/07/16 08:11:26;;;;;;;20.80;2.70;;;17.30;99.90;;;;;;4910409;29;20036;-88
2021/07/16 08:13:51;;;;;;;18.50;2.35;;;17.20;99.90;;;;;;4910194;29;20064;-92
2021/07/16 08:16:17;;;;;;;20.33;2.72;;;17.00;99.90;;;;;;4894401;29;20049;-90
2021/07/16 08:18:43;;;;;;;18.55;2.58;;;16.90;99.90;;;;;;4894733;29;20037;-91
2021/07/16 08:21:08;;;;;;;17.95;2.08;;;16.90;99.90;;;;;;4894438;29;20370;-88
2021/07/16 08:23:34;;;;;;;11.32;1.52;;;16.90;99.90;;;;;;4894194;29;20048;-91
2021/07/16 08:25:59;;;;;;;15.57;2.03;;;17.00;99.90;;;;;;4910202;29;20092;-92
2021/07/16 08:28:25;;;;;;;16.65;2.78;;;16.90;99.90;;;;;;4909728;29;20033;-89
2021/07/16 08:30:51;;;;;;;16.48;2.35;;;16.90;99.90;;;;;;4894418;29;20036;-92
2021/07/16 08:33:16;;;;;;;16.38;1.85;;;16.90;99.90;;;;;;4893158;29;20044;-90
2021/07/16 08:35:43;;;;;;;12.90;2.17;;;16.90;99.90;;;;;;4909661;29;20028;-89
2021/07/16 08:38:09;;;;;;;15.27;2.25;;;17.00;99.90;;;;;;4909384;29;20036;-92
2021/07/16 08:40:34;;;;;;;16.23;3.33;;;17.00;99.90;;;;;;4894669;29;20032;-87
2021/07/16 08:43:01;;;;;;;14.55;2.70;;;17.00;99.90;;;;;;4893940;29;20036;-87
2021/07/16 08:45:27;;;;;;;10.98;2.85;;;17.20;99.90;;;;;;4909830;29;20478;-89
2021/07/16 08:47:53;;;;;;;12.63;1.90;;;17.40;99.90;;;;;;4894008;29;20036;-91
2021/07/16 08:50:20;;;;;;;16.77;2.15;;;17.30;99.90;;;;;;4894280;29;20063;-91
2021/07/16 08:52:47;;;;;;;15.68;2.60;;;17.30;99.90;;;;;;4883087;29;20474;-87
2021/07/16 08:55:14;;;;;;;17.77;2.70;;;17.20;99.90;;;;;;4860082;29;20127;-88
2021/07/16 08:57:41;;;;;;;18.25;1.88;;;17.30;99.90;;;;;;4890731;29;20029;-90
2021/07/16 09:00:12;;;;;;;17.33;2.17;;;17.30;99.90;;;;;;4890868;29;20032;-88
2021/07/16 09:02:56;;;;;;;13.10;2.55;;;17.30;99.90;;;;;;4906238;29;20379;-87
2021/07/16 09:05:32;;;;;;;12.00;2.20;;;17.30;99.90;;;;;;4891253;29;20037;-88
2021/07/16 09:07:59;;;;;;;13.38;1.73;;;17.40;99.90;;;;;;4905995;29;20033;-89
2021/07/16 09:10:25;;;;;;;13.63;1.95;;;17.40;99.90;;;;;;4875280;29;20051;-89
2021/07/16 09:12:58;;;;;;;18.30;2.20;;;17.40;99.90;;;;;;4890544;29;20406;-87
2021/07/16 09:15:23;;;;;;;14.48;1.80;;;17.40;99.90;;;;;;4898717;29;20036;-91
2021/07/16 09:17:53;;;;;;;15.93;1.70;;;17.40;99.90;;;;;;4909151;29;20037;-90
2021/07/16 09:20:26;;;;;;;14.63;1.98;;;17.40;99.90;;;;;;4920930;29;20044;-89
2021/07/16 09:23:13;;;;;;;9.40;1.15;;;17.40;99.90;;;;;;4901657;29;20044;-88
2021/07/16 09:25:39;;;;;;;15.52;2.75;;;17.40;99.90;;;;;;4892616;29;20068;-89
2021/07/16 09:28:05;;;;;;;17.27;2.10;;;17.30;99.90;;;;;;4909323;29;20064;-87
2021/07/16 09:30:32;;;;;;;8.68;1.85;;;17.40;99.90;;;;;;4909000;29;20047;-89
2021/07/16 09:33:05;;;;;;;16.10;2.22;;;17.30;99.90;;;;;;4893473;29;20028;-88
2021/07/16 09:35:39;;;;;;;10.88;1.70;;;17.30;99.90;;;;;;4909294;29;20037;-87
2021/07/16 09:38:12;;;;;;;9.10;1.73;;;17.40;99.90;;;;;;4909849;29;20039;-88
2021/07/16 09:40:41;;;;;;;9.38;1.75;;;17.60;99.90;;;;;;4893381;29;20036;-90
2021/07/16 09:43:09;;;;;;;10.73;1.83;;;17.60;99.90;;;;;;4924679;29;20049;-88
2021/07/16 09:45:36;;;;;;;10.88;1.50;;;17.70;99.90;;;;;;4893251;29;20124;-88
2021/07/16 09:48:26;;;;;;;9.95;1.48;;;17.70;99.90;;;;;;4908453;29;20037;-88
2021/07/16 09:51:23;;;;;;;9.43;0.90;;;17.60;99.90;;;;;;4892654;29;20056;-87
2021/07/16 09:53:55;;;;;;;11.48;1.80;;;17.70;99.90;;;;;;4855586;29;20041;-88
2021/07/16 09:56:33;;;;;;;9.65;2.30;;;17.40;99.90;;;;;;4886594;29;20062;-90
2021/07/16 09:59:03;;;;;;;9.77;2.60;;;17.30;99.90;;;;;;4872218;29;20037;-89
2021/07/16 10:01:31;;;;;;;13.00;2.75;;;17.30;99.90;;;;;;4905378;29;20057;-90
2021/07/16 10:04:01;;;;;;;10.90;2.10;;;17.30;99.90;;;;;;4859052;29;20057;-90
2021/07/16 10:06:29;;;;;;;14.57;2.00;;;17.40;99.90;;;;;;4890488;29;20029;-88
2021/07/16 10:08:56;;;;;;;15.23;2.42;;;17.50;99.90;;;;;;4890016;29;20041;-90
2021/07/16 10:11:30;;;;;;;21.15;3.50;;;17.60;99.90;;;;;;4890196;29;20373;-86
2021/07/16 10:13:59;;;;;;;14.48;2.55;;;17.70;99.90;;;;;;4889813;29;20101;-87
2021/07/16 10:16:25;;;;;;;15.35;2.80;;;17.80;99.90;;;;;;4903946;29;20033;-89
2021/07/16 10:18:54;;;;;;;14.63;2.72;;;17.70;99.90;;;;;;4913106;29;20055;-87
2021/07/16 10:21:21;;;;;;;13.10;3.03;;;17.60;99.90;;;;;;4896282;29;20042;-91
2021/07/16 10:23:49;;;;;;;17.40;3.05;;;17.70;99.90;;;;;;4895892;29;20051;-88
2021/07/16 10:26:16;;;;;;;16.45;2.65;;;17.80;99.90;;;;;;4896062;29;20033;-89
2021/07/16 10:28:43;;;;;;;13.68;2.67;;;18.20;99.90;;;;;;4911779;29;20041;-86
2021/07/16 10:31:28;;;;;;;13.38;2.55;;;18.20;99.90;;;;;;4911901;29;20039;-91
2021/07/16 10:33:55;;;;;;;11.88;2.25;;;18.30;99.90;;;;;;4895933;29;20420;-89
2021/07/16 10:36:41;;;;;;;14.93;3.13;;;18.30;99.90;;;;;;4896068;29;20032;-88
2021/07/16 10:39:10;;;;;;;10.73;2.20;;;18.70;99.90;;;;;;4911246;29;20128;-90
2021/07/16 10:41:38;;;;;;;15.65;1.90;;;18.60;99.90;;;;;;4895742;29;20029;-89
2021/07/16 10:44:05;;;;;;;16.92;2.78;;;18.80;99.90;;;;;;4895546;29;20108;-87
2021/07/16 10:46:39;;;;;;;12.20;2.30;;;18.50;99.90;;;;;;4926971;29;20036;-91
2021/07/16 10:49:08;;;;;;;16.42;2.35;;;18.90;99.90;;;;;;4911198;29;20530;-89
2021/07/16 10:51:35;;;;;;;;;;;19.20;99.90;;;;;;4911808;29;20051;-92
2021/07/16 10:54:03;;;;;;;12.82;2.22;;;19.40;99.90;;;;;;4895318;29;19911;-90
2021/07/16 10:56:39;;;;;;;19.63;2.42;;;19.40;99.90;;;;;;4911549;29;20047;-88
2021/07/16 10:59:06;;;;;;;12.77;2.08;;;18.90;99.90;;;;;;4899116;29;20123;-89
2021/07/16 11:01:34;;;;;;;11.25;2.35;;;18.80;99.90;;;;;;4911131;29;20028;-92
2021/07/16 11:04:01;;;;;;;18.43;2.30;;;19.00;99.90;;;;;;4895360;29;20076;-86
2021/07/16 11:06:51;;;;;;;13.45;2.83;;;18.80;99.90;;;;;;4895813;29;20043;-89
2021/07/16 11:09:37;;;;;;;10.35;2.40;;;18.50;99.90;;;;;;4895871;29;20043;-89
2021/07/16 11:12:46;;;;;;;11.65;2.03;;;18.50;99.90;;;;;;4895077;29;20108;-90
2021/07/16 11:15:29;;;;;;;16.40;3.50;;;18.50;99.90;;;;;;4908980;29;20040;-87
2021/07/16 11:17:56;;;;;;;12.32;1.95;;;18.40;99.90;;;;;;4910953;29;20056;-88
2021/07/16 11:20:21;;;;;;;9.48;1.83;;;18.50;99.90;;;;;;4911048;29;20374;-88
2021/07/16 11:23:00;;;;;;;17.40;2.60;;;18.40;99.90;;;;;;4895155;29;20064;-90
2021/07/16 11:25:27;;;;;;;10.48;1.85;;;18.50;99.90;;;;;;4910618;29;20033;-88
2021/07/16 11:27:57;;;;;;;11.43;2.30;;;18.60;99.90;;;;;;4910631;29;20043;-88
2021/07/16 11:30:23;;;;;;;10.77;2.30;;;18.60;99.90;;;;;;4910706;29;20033;-87
2021/07/16 11:32:48;;;;;;;16.80;2.70;;;18.50;99.90;;;;;;4910556;29;20504;-89
2021/07/16 11:35:14;;;;;;;18.48;3.35;;;18.50;99.90;;;;;;4910585;29;20103;-91
2021/07/16 11:37:49;;;;;;;15.27;2.78;;;18.50;99.90;;;;;;4910617;29;20413;-89
2021/07/16 11:40:19;;;;;;;14.30;2.78;;;18.50;99.90;;;;;;4926171;29;20033;-91
2021/07/16 11:42:52;;;;;;;;;;;18.60;99.90;;;;;;4910727;29;20100;-90
2021/07/16 11:45:19;;;;;;;15.65;2.25;;;18.50;99.90;;;;;;4910183;29;19918;-87
2021/07/16 11:47:45;;;;;;;9.88;1.77;;;18.30;99.90;;;;;;4909993;29;20036;-91
2021/07/16 11:50:12;;;;;;;16.75;3.15;;;18.40;99.90;;;;;;4894445;29;20076;-89
2021/07/16 11:52:42;;;;;;;13.68;2.15;;;18.30;99.90;;;;;;4911126;29;20047;-87
2021/07/16 11:55:17;;;;;;;10.75;2.22;;;18.30;99.90;;;;;;4909701;29;20033;-87
2021/07/16 11:57:57;;;;;;;11.68;2.20;;;18.30;99.90;;;;;;4925824;29;20040;-88
2021/07/16 12:00:28;;;;;;;16.45;2.67;;;18.20;99.90;;;;;;4909976;29;20060;-90
2021/07/16 12:03:02;;;;;;;15.95;2.55;;;18.40;99.90;;;;;;4909848;29;20477;-90
2021/07/16 12:05:28;;;;;;;15.48;2.03;;;18.30;99.90;;;;;;4909916;29;20043;-88
2021/07/16 12:07:54;;;;;;;14.90;2.42;;;18.40;99.90;;;;;;4909795;29;20293;-88
2021/07/16 12:10:21;;;;;;;10.75;2.33;;;18.60;99.90;;;;;;4909850;29;20039;-91
2021/07/16 12:12:47;;;;;;;14.95;3.22;;;18.70;99.90;;;;;;4909600;29;20036;-90
2021/07/16 12:15:20;;;;;;;19.48;3.90;;;18.80;99.90;;;;;;4909873;29;20028;-91
2021/07/16 12:17:59;;;;;;;11.95;2.58;;;18.80;99.90;;;;;;4894132;29;20037;-91
2021/07/16 12:20:28;;;;;;;13.23;2.80;;;18.80;99.90;;;;;;4894404;29;20059;-90
2021/07/16 12:22:54;;;;;;;13.13;2.80;;;18.80;99.90;;;;;;4878450;29;20455;-92
2021/07/16 12:25:20;;;;;;;14.65;2.83;;;18.80;99.90;;;;;;4894041;29;20045;-90
2021/07/16 12:28:05;;;;;;;13.02;2.05;;;18.70;99.90;;;;;;4894094;29;20189;-89
2021/07/16 12:30:30;;;;;;;14.70;2.95;;;18.80;99.90;;;;;;4909568;29;20033;-88
2021/07/16 12:33:02;;;;;;;10.93;2.15;;;18.80;99.90;;;;;;4909579;29;20500;-90
2021/07/16 12:35:27;;;;;;;14.90;2.42;;;19.00;99.90;;;;;;4909834;29;20123;-91
2021/07/16 12:38:00;;;;;;;10.80;1.83;;;18.80;99.90;;;;;;4893607;29;20036;-89
2021/07/16 12:40:26;;;;;;;14.00;2.00;;;18.80;99.90;;;;;;4893760;29;20036;-90
2021/07/16 12:43:09;;;;;;;9.45;1.60;;;18.90;99.90;;;;;;4893492;29;20045;-90
2021/07/16 12:48:32;;;;;;;10.95;1.70;;;19.00;99.90;;;;;;4852355;29;20041;-89
2021/07/16 12:51:10;;;;;;;11.60;2.38;;;18.90;99.90;;;;;;4852091;29;20304;-90